Cumberland, Iowa
Current Conditions -  °F | °C
As of 5:55 AM on Thursday 27 Nov 2014 (Local Time) from KAIO Reporting Station
Overcast Overcast  
Wind Chill: -18°   Ceiling: 5000
Heat Index: -13°   Visibility: 10mi
Dew Point: -16°   Wind: 5mph
Humidity: 79%   Direction: 30°NNE
Pressure: 30.49"   Gusts: NA
Location:  41.27°N, 94.87°W
Report Text: KAIO 271155Z AUTO 03004KT 10SM OVC050 M13/M16 A3049 RMK AO2
Loading
Personal Weather Stations






























Interactive Weather Map New forecast layout! Learn more

10-Day Weather Forecast

Advertisements
Track Severe Weather on mobile